Time;durP1;ratioP1;P1;durP2;ratioP2;P2;SDS_P1;SDS_P2;PMS_P1;PMS_P2;Temp;Humidity;BMP_temperature;BMP_pressure;BME280_temperature;BME280_humidity;BME280_pressure;Samples;Min_cycle;Max_cycle;Signal;HPM_P1;HPM_P2
2023/07/28 00:01:09;;;;;;;60.20;20.30;;;17.70;99.90;;;;;;5112061;28;20044;-75
2023/07/28 00:03:35;;;;;;;71.57;21.27;;;17.80;99.90;;;;;;5110365;28;20036;-76
2023/07/28 00:06:00;;;;;;;71.88;22.80;;;17.70;99.90;;;;;;5107760;28;20047;-76
2023/07/28 00:08:26;;;;;;;56.63;19.50;;;17.70;99.90;;;;;;5106569;28;20040;-76
2023/07/28 00:10:52;;;;;;;59.40;21.35;;;17.70;99.90;;;;;;5108219;28;20061;-76
2023/07/28 00:13:17;;;;;;;58.47;22.35;;;17.80;99.90;;;;;;5109433;28;20044;-75
2023/07/28 00:15:43;;;;;;;60.15;20.90;;;17.80;99.90;;;;;;5110419;28;20084;-76
2023/07/28 00:18:08;;;;;;;58.33;20.52;;;17.80;99.90;;;;;;5103804;28;20470;-76
2023/07/28 00:20:37;;;;;;;49.17;20.25;;;17.80;99.90;;;;;;5102172;28;20193;-76
2023/07/28 00:23:03;;;;;;;58.63;21.98;;;18.30;99.90;;;;;;5106966;28;20074;-74
2023/07/28 00:25:28;;;;;;;64.18;23.27;;;17.80;99.90;;;;;;5109510;28;20067;-76
2023/07/28 00:27:54;;;;;;;66.35;24.42;;;17.80;99.90;;;;;;5104719;28;20036;-75
2023/07/28 00:30:20;;;;;;;76.20;26.17;;;17.80;99.90;;;;;;5109273;28;20047;-75
2023/07/28 00:32:45;;;;;;;62.45;25.75;;;17.80;99.90;;;;;;5107188;28;20421;-75
2023/07/28 00:35:11;;;;;;;63.08;22.95;;;17.80;99.90;;;;;;5104351;28;20036;-76
2023/07/28 00:37:37;;;;;;;60.53;23.13;;;17.80;99.90;;;;;;5108687;28;20036;-75
2023/07/28 00:40:03;;;;;;;60.33;22.40;;;17.80;99.90;;;;;;5115591;28;20595;-74
2023/07/28 00:42:29;;;;;;;56.38;23.50;;;17.80;99.90;;;;;;5110697;27;20083;-76
2023/07/28 00:44:55;;;;;;;62.42;23.42;;;17.90;99.90;;;;;;5111317;28;20125;-74
2023/07/28 00:47:21;;;;;;;69.40;25.20;;;17.90;99.90;;;;;;5108906;28;20393;-76
2023/07/28 00:49:47;;;;;;;74.93;22.90;;;17.80;99.90;;;;;;5112738;28;20134;-76
2023/07/28 00:52:13;;;;;;;62.60;23.52;;;17.90;99.90;;;;;;5105526;28;20040;-76
2023/07/28 00:54:39;;;;;;;50.88;23.15;;;17.80;99.90;;;;;;5110856;28;20140;-76
2023/07/28 00:57:05;;;;;;;64.72;21.75;;;17.80;99.90;;;;;;5108793;28;20477;-76
2023/07/28 00:59:31;;;;;;;57.35;22.50;;;17.80;99.90;;;;;;5093651;28;20051;-76
2023/07/28 01:01:56;;;;;;;66.53;22.90;;;17.80;99.90;;;;;;5114850;28;20039;-76
2023/07/28 01:04:22;;;;;;;63.83;22.10;;;17.80;99.90;;;;;;5109123;28;20474;-76
2023/07/28 01:07:08;;;;;;;59.92;21.80;;;17.90;99.90;;;;;;5111246;28;20035;-76
2023/07/28 01:09:45;;;;;;;58.97;21.80;;;17.90;99.90;;;;;;5112588;28;20512;-74
2023/07/28 01:12:11;;;;;;;55.38;21.40;;;17.90;99.90;;;;;;5106878;28;20047;-73
2023/07/28 01:14:37;;;;;;;68.05;23.27;;;17.90;99.90;;;;;;5113298;28;20126;-75
2023/07/28 01:17:03;;;;;;;77.20;23.95;;;17.90;99.90;;;;;;5108530;28;20127;-76
2023/07/28 01:19:29;;;;;;;64.57;23.73;;;17.90;99.90;;;;;;5115518;28;20040;-75
2023/07/28 01:22:32;;;;;;;82.97;25.13;;;17.90;99.90;;;;;;5111118;28;20105;-75
2023/07/28 01:25:16;;;;;;;67.30;23.75;;;17.90;99.90;;;;;;5106882;28;20047;-76
2023/07/28 01:27:43;;;;;;;56.47;23.25;;;17.90;99.90;;;;;;5110438;28;20044;-75
2023/07/28 01:30:09;;;;;;;61.63;22.92;;;17.80;99.90;;;;;;5111587;28;20172;-76
2023/07/28 01:32:36;;;;;;;69.03;24.77;;;17.90;99.90;;;;;;5114179;28;20438;-76
2023/07/28 01:35:05;;;;;;;75.03;24.63;;;17.90;99.90;;;;;;5115338;28;20054;-76
2023/07/28 01:37:31;;;;;;;66.78;23.98;;;17.90;99.90;;;;;;5113060;28;20081;-75
2023/07/28 01:39:57;;;;;;;69.57;24.65;;;17.90;99.90;;;;;;5100106;28;20071;-76
2023/07/28 01:42:23;;;;;;;74.07;25.00;;;17.90;99.90;;;;;;5110680;28;20044;-76
2023/07/28 01:44:50;;;;;;;89.93;26.17;;;17.90;99.90;;;;;;5110816;28;20105;-76
2023/07/28 01:47:15;;;;;;;67.90;24.55;;;17.90;99.90;;;;;;5111321;28;20039;-75
2023/07/28 01:49:41;;;;;;;81.13;25.83;;;17.90;99.90;;;;;;5113624;28;20039;-76
2023/07/28 01:52:07;;;;;;;59.25;23.08;;;17.80;99.90;;;;;;5107470;28;20032;-76
2023/07/28 01:54:32;;;;;;;73.22;23.90;;;17.90;99.90;;;;;;5107364;28;20046;-75
2023/07/28 01:56:58;;;;;;;61.72;22.17;;;17.90;99.90;;;;;;5109826;28;20046;-76
2023/07/28 01:59:23;;;;;;;54.80;21.25;;;17.90;99.90;;;;;;5112600;28;20070;-75
2023/07/28 02:01:49;;;;;;;66.07;21.23;;;17.80;99.90;;;;;;5111480;28;20058;-75
2023/07/28 02:04:15;;;;;;;60.92;20.10;;;17.90;99.90;;;;;;5109286;28;20039;-75
2023/07/28 02:06:41;;;;;;;78.75;21.75;;;17.90;99.90;;;;;;5110007;28;20405;-75
2023/07/28 02:09:07;;;;;;;50.38;18.08;;;17.90;99.90;;;;;;5110557;28;20040;-75
2023/07/28 02:11:33;;;;;;;57.25;19.33;;;17.90;99.90;;;;;;5109021;28;20040;-74
2023/07/28 02:13:58;;;;;;;45.47;18.02;;;17.90;99.90;;;;;;5110325;28;20651;-76
2023/07/28 02:16:24;;;;;;;50.53;17.48;;;17.90;99.90;;;;;;5109396;27;20118;-76
2023/07/28 02:18:50;;;;;;;39.17;16.73;;;17.90;99.90;;;;;;5111652;28;20092;-76
2023/07/28 02:21:15;;;;;;;45.97;18.02;;;17.80;99.90;;;;;;5108496;28;20044;-76
2023/07/28 02:23:41;;;;;;;49.05;16.77;;;17.90;99.90;;;;;;5109547;28;20042;-76
2023/07/28 02:26:07;;;;;;;38.63;16.13;;;17.90;99.90;;;;;;5107686;28;20450;-77
2023/07/28 02:28:32;;;;;;;53.92;18.23;;;17.80;99.90;;;;;;5108363;27;20039;-75
2023/07/28 02:30:58;;;;;;;47.13;18.17;;;17.80;99.90;;;;;;5109077;28;20035;-76
2023/07/28 02:33:24;;;;;;;52.13;17.67;;;17.90;99.90;;;;;;5111242;28;20123;-74
2023/07/28 02:35:50;;;;;;;51.47;18.70;;;17.80;99.90;;;;;;5107922;28;20406;-76
2023/07/28 02:38:16;;;;;;;60.72;20.48;;;17.90;99.90;;;;;;5111665;28;20050;-76
2023/07/28 02:40:42;;;;;;;58.60;21.92;;;17.90;99.90;;;;;;5112805;28;20358;-76
2023/07/28 02:43:08;;;;;;;64.30;20.23;;;17.80;99.90;;;;;;5106208;28;20097;-76
2023/07/28 02:45:34;;;;;;;67.18;22.42;;;17.90;99.90;;;;;;5098838;28;20416;-76
2023/07/28 02:47:59;;;;;;;67.78;23.73;;;17.90;99.90;;;;;;5107243;28;20031;-75
2023/07/28 02:50:25;;;;;;;58.70;22.95;;;17.90;99.90;;;;;;5111457;28;20042;-74
2023/07/28 02:52:50;;;;;;;65.38;22.83;;;17.80;99.90;;;;;;5106980;28;20137;-75
2023/07/28 02:55:16;;;;;;;81.82;23.40;;;17.90;99.90;;;;;;5104336;28;20044;-76
2023/07/28 02:57:41;;;;;;;64.25;22.42;;;17.80;99.90;;;;;;5090508;28;20039;-75
2023/07/28 03:00:10;;;;;;;80.63;25.90;;;17.90;99.90;;;;;;5105434;28;20036;-75
2023/07/28 03:02:36;;;;;;;100.40;26.15;;;17.90;99.90;;;;;;5112676;28;20035;-76
2023/07/28 03:05:01;;;;;;;68.25;24.05;;;17.90;99.90;;;;;;5107821;28;20088;-76
2023/07/28 03:07:27;;;;;;;63.40;22.45;;;17.90;99.90;;;;;;5106707;28;20474;-75
2023/07/28 03:09:53;;;;;;;69.53;25.45;;;17.90;99.90;;;;;;5108924;28;20051;-74
2023/07/28 03:12:18;;;;;;;70.50;23.85;;;17.80;99.90;;;;;;5110563;28;20039;-75
2023/07/28 03:14:44;;;;;;;86.40;25.25;;;17.90;99.90;;;;;;5110502;28;20035;-75
2023/07/28 03:17:10;;;;;;;89.70;25.33;;;17.90;99.90;;;;;;5110602;28;20048;-76
2023/07/28 03:19:35;;;;;;;65.90;22.48;;;17.80;99.90;;;;;;5108472;28;20742;-76
2023/07/28 03:22:01;;;;;;;60.22;23.45;;;17.90;99.90;;;;;;5111696;28;20469;-77
2023/07/28 03:24:27;;;;;;;84.28;24.20;;;17.80;99.90;;;;;;5092995;28;20035;-76
2023/07/28 03:26:52;;;;;;;66.88;22.90;;;17.80;99.90;;;;;;5102422;28;20140;-75
2023/07/28 03:29:18;;;;;;;61.22;22.13;;;17.80;99.90;;;;;;5106982;28;20047;-76
2023/07/28 03:31:44;;;;;;;65.93;22.15;;;17.80;99.90;;;;;;5110650;28;20563;-76
2023/07/28 03:34:09;;;;;;;56.47;19.48;;;17.90;99.90;;;;;;5112371;28;20035;-75
2023/07/28 03:36:35;;;;;;;57.83;21.08;;;17.90;99.90;;;;;;5107850;28;20036;-76
2023/07/28 03:39:00;;;;;;;58.85;20.70;;;17.80;99.90;;;;;;5108301;28;20038;-74
2023/07/28 03:41:26;;;;;;;55.33;20.33;;;17.90;99.90;;;;;;5112080;28;20362;-76
2023/07/28 03:43:52;;;;;;;58.55;19.48;;;17.90;99.90;;;;;;5110606;28;20050;-76
2023/07/28 03:46:18;;;;;;;63.05;20.20;;;17.80;99.90;;;;;;5109405;28;20047;-76
2023/07/28 03:48:43;;;;;;;47.40;18.83;;;17.80;99.90;;;;;;5108928;28;20078;-76
2023/07/28 03:51:09;;;;;;;67.53;21.67;;;17.80;99.90;;;;;;5107183;28;20039;-77
2023/07/28 03:53:36;;;;;;;71.13;20.17;;;17.90;99.90;;;;;;5106875;28;20032;-76
2023/07/28 03:56:02;;;;;;;47.70;17.90;;;17.90;99.90;;;;;;5105433;28;20046;-76
2023/07/28 03:58:28;;;;;;;55.22;17.17;;;17.90;99.90;;;;;;5110651;28;20040;-76
2023/07/28 04:00:53;;;;;;;59.88;18.40;;;17.90;99.90;;;;;;5104119;28;20043;-77
2023/07/28 04:03:20;;;;;;;57.03;17.25;;;17.80;99.90;;;;;;5113487;27;20035;-76
2023/07/28 04:05:45;;;;;;;43.63;16.38;;;17.90;99.90;;;;;;5114893;28;20081;-76
2023/07/28 04:08:11;;;;;;;46.42;15.68;;;17.80;99.90;;;;;;5114700;28;20140;-76
2023/07/28 04:10:37;;;;;;;64.65;17.60;;;17.90;99.90;;;;;;5109577;28;20063;-76
2023/07/28 04:13:02;;;;;;;66.75;17.80;;;17.80;99.90;;;;;;5115905;28;20555;-77
2023/07/28 04:15:28;;;;;;;43.70;14.77;;;17.80;99.90;;;;;;5112255;28;20035;-75
2023/07/28 04:17:54;;;;;;;37.97;14.07;;;17.90;99.90;;;;;;5114883;28;20134;-76
2023/07/28 04:20:19;;;;;;;53.95;17.15;;;17.80;99.90;;;;;;5111951;28;20392;-77
2023/07/28 04:22:45;;;;;;;40.20;14.80;;;17.90;99.90;;;;;;5110760;27;20035;-77
2023/07/28 04:25:10;;;;;;;52.60;15.43;;;17.90;99.90;;;;;;5110406;28;20134;-77
2023/07/28 04:27:36;;;;;;;46.38;14.95;;;17.90;99.90;;;;;;5109171;28;20130;-77
2023/07/28 04:30:02;;;;;;;42.95;14.25;;;17.80;99.90;;;;;;5105747;28;20028;-77
2023/07/28 04:32:27;;;;;;;43.35;13.80;;;17.90;99.90;;;;;;5106784;28;20047;-77
2023/07/28 04:34:53;;;;;;;42.78;14.10;;;17.90;99.90;;;;;;5111543;28;20104;-77
2023/07/28 04:37:19;;;;;;;46.47;14.00;;;17.90;99.90;;;;;;5103213;27;20035;-77
2023/07/28 04:39:44;;;;;;;47.00;15.05;;;17.90;99.90;;;;;;5107157;28;20109;-77
2023/07/28 04:42:10;;;;;;;53.83;15.13;;;17.90;99.90;;;;;;5111712;28;20082;-76
2023/07/28 04:44:39;;;;;;;41.33;13.35;;;17.90;99.90;;;;;;5112909;28;20053;-76
2023/07/28 04:47:05;;;;;;;43.20;14.18;;;17.90;99.90;;;;;;5112078;28;20044;-77
2023/07/28 04:49:31;;;;;;;34.67;14.02;;;17.90;99.90;;;;;;5105766;28;20027;-76
2023/07/28 04:51:56;;;;;;;35.28;13.68;;;17.90;99.90;;;;;;5114130;28;20040;-77
2023/07/28 04:54:22;;;;;;;44.95;14.80;;;17.90;99.90;;;;;;5106713;28;20128;-77
2023/07/28 04:56:52;;;;;;;41.38;14.45;;;18.00;99.90;;;;;;5114493;28;20039;-77
2023/07/28 04:59:18;;;;;;;28.25;12.40;;;18.00;99.90;;;;;;5111664;28;20043;-76
2023/07/28 05:01:44;;;;;;;34.05;14.48;;;18.00;99.90;;;;;;5113201;28;20073;-76
2023/07/28 05:04:10;;;;;;;34.55;13.60;;;18.00;99.90;;;;;;5113421;28;20040;-77
2023/07/28 05:06:35;;;;;;;33.05;13.02;;;18.00;99.90;;;;;;5117656;28;20389;-76
2023/07/28 05:09:01;;;;;;;32.78;12.52;;;18.00;99.90;;;;;;5112723;27;20047;-77
2023/07/28 05:11:26;;;;;;;36.90;13.35;;;18.00;99.90;;;;;;5113053;28;20537;-76
2023/07/28 05:13:52;;;;;;;30.90;13.02;;;18.00;99.90;;;;;;5114537;28;20040;-77
2023/07/28 05:16:18;;;;;;;31.73;12.55;;;18.00;99.90;;;;;;5111602;28;20047;-77
2023/07/28 05:18:43;;;;;;;28.25;12.10;;;18.00;99.90;;;;;;5102038;28;20052;-76
2023/07/28 05:21:09;;;;;;;43.25;14.20;;;18.00;99.90;;;;;;5112272;28;20439;-76
2023/07/28 05:23:34;;;;;;;34.13;13.68;;;18.00;99.90;;;;;;5110941;28;20054;-77
2023/07/28 05:26:00;;;;;;;36.60;11.88;;;18.10;99.90;;;;;;5109441;28;20371;-76
2023/07/28 05:28:26;;;;;;;33.15;12.77;;;18.00;99.90;;;;;;5092246;28;20076;-77
2023/07/28 05:30:51;;;;;;;29.17;11.20;;;18.00;99.90;;;;;;5110292;28;20054;-76
2023/07/28 05:33:17;;;;;;;28.48;12.00;;;18.00;99.90;;;;;;5112682;28;20043;-77
2023/07/28 05:35:45;;;;;;;27.52;12.10;;;18.00;99.90;;;;;;5107635;28;20035;-77
2023/07/28 05:38:10;;;;;;;;;;;18.00;99.90;;;;;;5106909;28;20040;-76
2023/07/28 05:40:36;;;;;;;34.78;12.25;;;18.00;99.90;;;;;;5106570;28;19961;-77
2023/07/28 05:43:02;;;;;;;23.13;10.80;;;18.00;99.90;;;;;;5108724;28;20044;-76
2023/07/28 05:45:28;;;;;;;27.92;11.48;;;18.00;99.90;;;;;;5113654;28;20500;-78
2023/07/28 05:47:54;;;;;;;23.25;11.40;;;18.00;99.90;;;;;;5106750;28;20058;-77
2023/07/28 05:50:20;;;;;;;27.90;11.50;;;18.10;99.90;;;;;;5115120;28;20050;-75
2023/07/28 05:52:46;;;;;;;26.35;11.85;;;18.10;99.90;;;;;;5109896;28;20031;-76
2023/07/28 05:55:12;;;;;;;30.58;12.63;;;18.10;99.90;;;;;;5114084;28;20043;-75
2023/07/28 05:57:37;;;;;;;22.95;12.57;;;18.10;99.90;;;;;;5110987;28;20040;-76
2023/07/28 06:00:04;;;;;;;26.17;12.15;;;18.10;99.90;;;;;;5114665;28;20040;-75
2023/07/28 06:02:29;;;;;;;26.73;11.52;;;18.10;99.90;;;;;;5107773;28;20046;-76
2023/07/28 06:04:55;;;;;;;22.15;11.13;;;18.10;99.90;;;;;;5115023;28;20401;-75
2023/07/28 06:07:22;;;;;;;23.00;11.93;;;18.10;99.90;;;;;;5113837;28;20039;-75
2023/07/28 06:09:48;;;;;;;27.85;11.60;;;18.20;99.90;;;;;;5100855;28;20089;-76
2023/07/28 06:12:13;;;;;;;22.15;11.27;;;18.20;99.90;;;;;;5114348;27;20443;-76
2023/07/28 06:14:39;;;;;;;29.88;12.02;;;18.10;99.90;;;;;;5111750;28;20043;-77
2023/07/28 06:17:05;;;;;;;19.63;11.40;;;18.10;99.90;;;;;;5113687;28;20048;-77
2023/07/28 06:19:30;;;;;;;20.98;11.23;;;18.20;99.90;;;;;;5101546;28;20085;-77
2023/07/28 06:21:56;;;;;;;32.42;12.65;;;18.20;99.90;;;;;;5112037;28;20092;-76
2023/07/28 06:24:21;;;;;;;34.45;12.80;;;18.30;99.90;;;;;;5105489;28;20127;-77
2023/07/28 06:26:47;;;;;;;22.88;11.90;;;18.20;99.90;;;;;;5110345;28;20067;-76
2023/07/28 06:29:13;;;;;;;17.75;11.07;;;18.30;99.90;;;;;;5102767;28;20485;-77
2023/07/28 06:31:38;;;;;;;25.38;12.30;;;18.30;99.90;;;;;;5108629;28;20032;-75
2023/07/28 06:34:04;;;;;;;23.98;11.70;;;18.40;99.90;;;;;;5108491;28;20051;-76
2023/07/28 06:36:30;;;;;;;20.17;10.65;;;18.40;99.90;;;;;;5109899;28;20378;-76
2023/07/28 06:38:55;;;;;;;20.40;10.85;;;18.50;99.90;;;;;;5110350;28;20047;-76
2023/07/28 06:41:23;;;;;;;21.02;11.57;;;18.50;99.90;;;;;;5108746;28;20043;-76
2023/07/28 06:43:49;;;;;;;14.18;11.27;;;18.50;99.90;;;;;;5105517;28;20586;-77
2023/07/28 06:46:14;;;;;;;16.08;10.55;;;18.50;99.90;;;;;;5112728;28;20119;-75
2023/07/28 06:48:40;;;;;;;14.25;10.00;;;18.60;99.90;;;;;;5107928;28;20066;-75
2023/07/28 06:51:06;;;;;;;17.80;10.57;;;18.70;99.90;;;;;;5103741;28;20122;-76
2023/07/28 06:53:34;;;;;;;16.17;11.77;;;18.60;99.90;;;;;;5116364;28;20054;-76
2023/07/28 06:56:00;;;;;;;14.05;11.05;;;18.60;99.90;;;;;;5113516;28;20069;-75
2023/07/28 06:58:25;;;;;;;16.58;10.57;;;18.60;99.90;;;;;;5112476;28;20059;-76
2023/07/28 07:00:51;;;;;;;13.65;10.05;;;18.60;99.90;;;;;;5093779;28;20051;-77
2023/07/28 07:03:17;;;;;;;13.88;9.93;;;18.60;99.90;;;;;;5110156;28;20038;-75
2023/07/28 07:05:43;;;;;;;14.02;10.88;;;18.60;99.90;;;;;;5114874;28;20508;-75
2023/07/28 07:08:09;;;;;;;15.63;10.63;;;18.60;99.90;;;;;;5112067;28;20035;-76
2023/07/28 07:10:35;;;;;;;20.20;11.10;;;18.60;99.90;;;;;;5112238;28;20126;-76
2023/07/28 07:13:01;;;;;;;13.02;10.27;;;18.70;99.90;;;;;;5110738;28;20115;-78
2023/07/28 07:15:26;;;;;;;14.20;9.27;;;18.80;99.90;;;;;;5099848;28;20040;-75
2023/07/28 07:17:52;;;;;;;14.45;9.60;;;18.90;99.90;;;;;;5111105;28;20048;-76
2023/07/28 07:20:17;;;;;;;11.90;9.32;;;18.90;99.90;;;;;;5094064;28;20234;-76
2023/07/28 07:22:43;;;;;;;14.15;9.40;;;18.90;99.90;;;;;;5106315;28;20036;-79
2023/07/28 07:25:09;;;;;;;8.82;7.93;;;18.90;99.90;;;;;;5115185;28;20036;-77
2023/07/28 07:27:34;;;;;;;11.45;8.73;;;18.90;99.90;;;;;;5110009;28;20477;-76
2023/07/28 07:30:00;;;;;;;13.57;8.02;;;19.00;99.90;;;;;;5113597;28;20032;-76
2023/07/28 07:32:25;;;;;;;13.05;8.82;;;19.00;99.90;;;;;;5105666;28;20073;-75
2023/07/28 07:34:53;;;;;;;10.55;8.02;;;19.00;99.90;;;;;;5115707;28;20052;-77
2023/07/28 07:37:18;;;;;;;18.80;9.15;;;19.00;99.90;;;;;;5111028;28;20358;-78
2023/07/28 07:39:44;;;;;;;8.65;7.50;;;19.00;99.90;;;;;;5109972;28;20043;-74
2023/07/28 07:42:14;;;;;;;15.30;8.60;;;19.10;99.90;;;;;;5113064;28;20036;-77
2023/07/28 07:44:40;;;;;;;12.75;8.10;;;19.10;99.90;;;;;;5105651;28;20366;-76
2023/07/28 07:47:14;;;;;;;10.80;6.68;;;19.10;99.90;;;;;;5111099;28;20036;-77
2023/07/28 07:49:40;;;;;;;8.40;7.00;;;19.10;99.90;;;;;;5103350;28;20031;-78
2023/07/28 07:52:07;;;;;;;9.68;6.90;;;19.00;99.90;;;;;;5107349;28;20404;-77
2023/07/28 07:54:33;;;;;;;9.55;7.97;;;19.10;99.90;;;;;;5107682;28;20097;-79
2023/07/28 07:56:59;;;;;;;10.50;7.30;;;19.10;99.90;;;;;;5108638;28;20036;-77
2023/07/28 07:59:27;;;;;;;13.80;7.35;;;19.00;99.90;;;;;;5110896;28;20088;-77
2023/07/28 08:01:53;;;;;;;9.85;7.32;;;19.10;99.90;;;;;;5108601;28;20527;-77
2023/07/28 08:04:19;;;;;;;10.32;7.75;;;19.10;99.90;;;;;;5112727;28;20443;-74
2023/07/28 08:06:45;;;;;;;14.00;7.65;;;19.10;99.90;;;;;;5111456;28;20051;-78
2023/07/28 08:09:10;;;;;;;9.82;8.13;;;19.20;99.90;;;;;;5108684;28;20035;-78
2023/07/28 08:11:36;;;;;;;15.63;8.25;;;19.30;99.90;;;;;;5110402;28;20040;-76
2023/07/28 08:14:02;;;;;;;8.73;7.00;;;19.30;99.90;;;;;;5115562;28;20050;-75
2023/07/28 08:16:27;;;;;;;8.27;7.28;;;19.50;99.90;;;;;;5109476;28;20043;-76
2023/07/28 08:18:53;;;;;;;10.85;7.78;;;19.50;99.90;;;;;;5108696;28;20504;-75
2023/07/28 08:21:19;;;;;;;10.80;7.93;;;19.60;99.90;;;;;;5113235;28;20054;-77
2023/07/28 08:23:45;;;;;;;11.27;7.75;;;19.70;99.90;;;;;;5114491;28;20040;-76
2023/07/28 08:26:11;;;;;;;10.68;7.25;;;19.80;99.90;;;;;;5116864;28;20069;-75
2023/07/28 08:28:36;;;;;;;10.27;6.88;;;19.80;99.90;;;;;;5096711;28;20042;-76
2023/07/28 08:31:03;;;;;;;12.60;7.13;;;19.80;99.90;;;;;;5094618;28;20071;-74
2023/07/28 08:33:29;;;;;;;8.67;7.10;;;19.70;99.90;;;;;;5112597;28;20024;-75
2023/07/28 08:35:55;;;;;;;9.40;6.88;;;19.80;99.90;;;;;;5108744;28;20043;-74
2023/07/28 08:38:20;;;;;;;8.75;6.70;;;19.90;99.90;;;;;;5109058;28;20375;-73
2023/07/28 08:40:46;;;;;;;11.52;7.57;;;20.00;99.90;;;;;;5105965;28;20036;-75
2023/07/28 08:43:12;;;;;;;9.15;6.72;;;20.10;99.90;;;;;;5109411;28;20035;-74
2023/07/28 08:45:38;;;;;;;7.55;6.55;;;20.20;99.90;;;;;;5102143;28;20051;-73
2023/07/28 08:48:04;;;;;;;9.38;5.97;;;20.20;99.90;;;;;;5103309;28;20118;-77
2023/07/28 08:50:30;;;;;;;9.60;7.07;;;20.30;99.90;;;;;;5111237;28;20070;-77
2023/07/28 08:52:59;;;;;;;8.57;6.68;;;20.20;99.90;;;;;;5110651;28;20499;-76
2023/07/28 08:55:25;;;;;;;8.68;6.65;;;20.20;99.90;;;;;;5108711;28;20176;-76
2023/07/28 08:57:51;;;;;;;9.00;5.82;;;20.20;99.90;;;;;;5109849;28;20472;-76
2023/07/28 09:00:17;;;;;;;7.35;5.72;;;20.10;99.90;;;;;;5108344;28;20130;-77
2023/07/28 09:02:43;;;;;;;5.88;5.07;;;20.10;99.90;;;;;;5102624;28;20048;-74
2023/07/28 09:05:19;;;;;;;6.40;4.95;;;20.00;99.90;;;;;;5110089;28;20126;-75
2023/07/28 09:07:48;;;;;;;7.88;5.13;;;20.00;99.90;;;;;;5106955;28;20027;-78
2023/07/28 09:10:13;;;;;;;6.45;5.15;;;20.00;99.90;;;;;;5105846;28;20039;-76
2023/07/28 09:12:50;;;;;;;6.88;5.70;;;20.00;99.90;;;;;;5113964;28;20122;-76
2023/07/28 09:15:18;;;;;;;5.45;4.70;;;20.10;99.90;;;;;;5112109;28;20081;-78
2023/07/28 09:17:45;;;;;;;4.97;4.05;;;20.10;99.90;;;;;;5109354;28;20490;-76
2023/07/28 09:20:17;;;;;;;9.07;4.15;;;20.00;99.90;;;;;;5110385;28;20058;-77
2023/07/28 09:22:44;;;;;;;6.95;3.80;;;20.00;99.90;;;;;;5105916;28;20039;-79
2023/07/28 09:25:17;;;;;;;4.60;4.20;;;20.00;99.90;;;;;;5105300;28;20119;-76
2023/07/28 09:27:52;;;;;;;4.85;4.05;;;20.00;99.90;;;;;;5104922;28;20246;-77
2023/07/28 09:30:18;;;;;;;6.30;3.38;;;20.10;99.90;;;;;;5111093;28;20473;-76
2023/07/28 09:32:48;;;;;;;11.18;4.10;;;20.20;99.90;;;;;;5112899;28;20043;-77
2023/07/28 09:35:14;;;;;;;5.80;3.85;;;20.30;99.90;;;;;;5104835;28;20084;-77
2023/07/28 09:37:47;;;;;;;5.32;3.97;;;20.50;99.90;;;;;;5113322;28;20043;-76
2023/07/28 09:40:18;;;;;;;6.82;4.30;;;20.60;99.90;;;;;;5117346;28;20452;-74
2023/07/28 09:42:49;;;;;;;4.75;4.03;;;20.80;99.90;;;;;;5105682;28;20115;-77
2023/07/28 09:45:17;;;;;;;4.85;3.53;;;21.00;99.90;;;;;;5116083;28;20132;-77
2023/07/28 09:47:46;;;;;;;6.00;4.05;;;21.10;99.90;;;;;;5099582;28;20047;-77
2023/07/28 09:50:15;;;;;;;6.30;3.50;;;21.30;99.90;;;;;;5112806;27;20486;-79
2023/07/28 09:52:49;;;;;;;5.68;3.22;;;21.40;99.90;;;;;;5114914;28;20097;-77
2023/07/28 09:55:17;;;;;;;8.93;3.20;;;21.60;99.90;;;;;;5117438;28;20044;-77
2023/07/28 09:57:51;;;;;;;4.28;2.90;;;21.60;99.90;;;;;;5097840;28;20046;-78
2023/07/28 10:00:19;;;;;;;3.20;2.78;;;21.60;99.90;;;;;;5116715;28;20058;-78
2023/07/28 10:02:50;;;;;;;6.60;2.80;;;21.60;99.90;;;;;;5089889;28;20501;-78
2023/07/28 10:05:15;;;;;;;5.45;3.00;;;21.70;99.90;;;;;;5109758;28;20546;-79
2023/07/28 10:07:43;;;;;;;3.80;2.67;;;21.80;99.90;;;;;;5109218;28;20039;-77
2023/07/28 10:10:12;;;;;;;;;;;21.90;99.90;;;;;;5116164;27;20052;-78
2023/07/28 10:12:42;;;;;;;4.95;3.13;;;21.80;99.90;;;;;;5111335;28;19927;-78
2023/07/28 10:15:17;;;;;;;4.70;3.88;;;21.70;99.90;;;;;;5111325;28;20379;-80
2023/07/28 10:17:47;;;;;;;6.13;3.42;;;21.90;99.90;;;;;;5115645;28;20048;-80
2023/07/28 10:20:49;;;;;;;4.35;3.65;;;22.00;99.90;;;;;;5121256;28;20031;-80
2023/07/28 10:23:14;;;;;;;4.47;3.05;;;22.20;99.90;;;;;;5074808;28;20040;-79
2023/07/28 10:25:41;;;;;;;10.10;3.00;;;22.40;99.90;;;;;;5108984;28;20465;-80
2023/07/28 10:28:27;;;;;;;5.27;3.10;;;22.40;99.90;;;;;;5116990;28;20040;-80
2023/07/28 10:30:56;;;;;;;5.63;3.38;;;22.40;99.90;;;;;;5115837;28;21066;-79
2023/07/28 10:33:36;;;;;;;5.15;3.22;;;22.40;99.90;;;;;;5112360;28;20165;-80
2023/07/28 10:36:21;;;;;;;4.32;3.55;;;22.30;99.90;;;;;;5116332;28;20035;-78
2023/07/28 10:39:01;;;;;;;5.35;3.40;;;22.40;99.90;;;;;;5114459;28;20083;-82
2023/07/28 10:41:27;;;;;;;4.78;3.30;;;22.50;99.90;;;;;;5108790;28;20118;-80
2023/07/28 10:43:53;;;;;;;7.38;3.60;;;22.90;99.90;;;;;;5121127;28;20472;-81
2023/07/28 10:46:21;;;;;;;4.80;2.75;;;23.10;99.90;;;;;;5116819;28;20031;-78
2023/07/28 10:48:48;;;;;;;5.72;2.55;;;23.10;99.90;;;;;;5111470;28;20035;-79
2023/07/28 10:51:33;;;;;;;3.47;2.17;;;23.10;99.90;;;;;;5115146;28;20070;-78
2023/07/28 10:53:59;;;;;;;4.10;2.28;;;22.90;99.90;;;;;;5102618;28;20401;-79
2023/07/28 10:56:26;;;;;;;4.72;2.33;;;22.90;99.90;;;;;;5110803;28;20046;-79
2023/07/28 10:59:03;;;;;;;4.78;2.40;;;23.00;99.90;;;;;;5098851;28;20039;-78
2023/07/28 11:01:37;;;;;;;5.13;3.03;;;23.00;99.90;;;;;;5093781;28;20067;-78
2023/07/28 11:04:14;;;;;;;5.43;2.38;;;22.90;99.90;;;;;;5100027;28;20123;-78
2023/07/28 11:06:48;;;;;;;3.88;1.88;;;22.80;99.90;;;;;;5111962;28;20466;-76
2023/07/28 11:09:17;;;;;;;4.55;2.30;;;22.80;99.90;;;;;;5099919;28;20051;-77
2023/07/28 11:11:43;;;;;;;3.40;2.28;;;22.70;99.90;;;;;;5112472;28;20036;-78
2023/07/28 11:14:09;;;;;;;4.47;2.30;;;22.60;99.90;;;;;;5111359;28;20048;-78
2023/07/28 11:16:37;;;;;;;6.22;2.20;;;22.60;99.90;;;;;;5117894;28;20047;-78
2023/07/28 11:19:11;;;;;;;5.03;2.28;;;22.80;99.90;;;;;;5112728;28;20052;-78
2023/07/28 11:21:40;;;;;;;6.53;2.45;;;23.20;99.90;;;;;;5095333;28;20044;-77
2023/07/28 11:24:10;;;;;;;6.25;1.98;;;23.40;99.90;;;;;;5116103;28;20043;-78
2023/07/28 11:26:39;;;;;;;5.55;1.90;;;23.60;99.90;;;;;;5117386;28;20043;-78
2023/07/28 11:29:06;;;;;;;2.53;1.60;;;23.80;99.90;;;;;;5118220;28;20077;-78
2023/07/28 11:31:33;;;;;;;6.75;2.50;;;24.00;99.90;;;;;;5102023;28;20036;-79
2023/07/28 11:33:59;;;;;;;6.40;2.75;;;24.10;99.90;;;;;;5113562;28;20459;-78
2023/07/28 11:36:28;;;;;;;4.38;2.10;;;24.30;99.90;;;;;;5117430;28;20040;-78
2023/07/28 11:38:58;;;;;;;2.38;1.70;;;24.40;99.90;;;;;;5122682;28;20421;-78
2023/07/28 11:41:25;;;;;;;4.05;2.20;;;24.50;99.90;;;;;;5118755;28;20046;-79
2023/07/28 11:43:51;;;;;;;4.80;2.00;;;24.50;99.90;;;;;;5119325;28;20544;-78
2023/07/28 11:46:37;;;;;;;2.85;1.42;;;24.60;99.90;;;;;;5111224;28;20123;-78
2023/07/28 11:49:13;;;;;;;3.88;2.22;;;24.80;99.90;;;;;;5111701;28;20040;-80
2023/07/28 11:51:48;;;;;;;3.50;1.90;;;24.90;99.90;;;;;;5118836;28;20074;-77
2023/07/28 11:54:16;;;;;;;4.03;1.98;;;24.90;99.90;;;;;;5111381;28;20405;-78
2023/07/28 11:56:43;;;;;;;2.45;1.73;;;24.80;99.90;;;;;;5094878;28;20509;-77
2023/07/28 11:59:10;;;;;;;5.07;1.92;;;24.70;99.90;;;;;;5106602;28;20044;-78
2023/07/28 12:01:58;;;;;;;6.10;2.00;;;24.80;99.90;;;;;;5117458;28;20075;-78
2023/07/28 12:04:25;;;;;;;3.47;1.90;;;25.00;99.90;;;;;;5106649;28;20436;-77
2023/07/28 12:07:03;;;;;;;;;;;25.10;99.90;;;;;;5110170;28;20045;-78
2023/07/28 12:09:29;;;;;;;2.75;1.83;;;25.20;99.90;;;;;;5111723;28;19928;-78
2023/07/28 12:11:57;;;;;;;2.65;1.75;;;25.20;99.90;;;;;;5105361;28;20040;-77
2023/07/28 12:14:35;;;;;;;3.13;1.50;;;25.00;99.90;;;;;;5095261;28;20465;-76
2023/07/28 12:17:03;;;;;;;;;;;24.60;99.90;;;;;;5110935;28;20036;-77
2023/07/28 12:19:29;;;;;;;9.45;1.90;;;24.30;99.90;;;;;;5115982;28;19966;-77
2023/07/28 12:21:54;;;;;;;4.32;1.77;;;24.40;99.90;;;;;;5110362;28;20371;-77
2023/07/28 12:24:20;;;;;;;4.55;2.10;;;24.60;99.90;;;;;;5096939;28;20048;-77
2023/07/28 12:26:47;;;;;;;3.55;1.48;;;24.80;99.90;;;;;;5107356;28;20054;-77
2023/07/28 12:29:13;;;;;;;1.83;1.40;;;24.90;99.90;;;;;;5117832;28;20047;-78
2023/07/28 12:31:39;;;;;;;3.47;1.90;;;25.00;99.90;;;;;;5117177;28;20090;-77
2023/07/28 12:34:05;;;;;;;3.85;1.52;;;24.90;99.90;;;;;;5114656;28;20436;-78
2023/07/28 12:36:30;;;;;;;2.72;1.50;;;25.10;99.90;;;;;;5098944;28;20094;-77